sensor_id;sensor_type;location;lat;lon;timestamp;P1;durP1;ratioP1;P2;durP2;ratioP2
24547;SDS011;12713;51.624;4.924;2023-03-01T00:01:59;15.80;;;11.20;;
24547;SDS011;12713;51.624;4.924;2023-03-01T00:04:26;17.23;;;11.40;;
24547;SDS011;12713;51.624;4.924;2023-03-01T00:06:52;14.13;;;10.35;;
24547;SDS011;12713;51.624;4.924;2023-03-01T00:09:18;17.63;;;11.20;;
24547;SDS011;12713;51.624;4.924;2023-03-01T00:11:45;16.02;;;11.25;;
24547;SDS011;12713;51.624;4.924;2023-03-01T00:14:11;16.38;;;11.27;;
24547;SDS011;12713;51.624;4.924;2023-03-01T00:16:41;15.05;;;11.45;;
24547;SDS011;12713;51.624;4.924;2023-03-01T00:19:09;16.90;;;10.75;;
24547;SDS011;12713;51.624;4.924;2023-03-01T00:21:35;14.10;;;10.43;;
24547;SDS011;12713;51.624;4.924;2023-03-01T00:24:01;15.07;;;10.73;;
24547;SDS011;12713;51.624;4.924;2023-03-01T00:26:28;15.38;;;10.98;;
24547;SDS011;12713;51.624;4.924;2023-03-01T00:28:54;16.30;;;11.27;;
24547;SDS011;12713;51.624;4.924;2023-03-01T00:31:21;14.57;;;10.38;;
24547;SDS011;12713;51.624;4.924;2023-03-01T00:33:48;15.00;;;10.45;;
24547;SDS011;12713;51.624;4.924;2023-03-01T00:36:14;12.25;;;10.68;;
24547;SDS011;12713;51.624;4.924;2023-03-01T00:38:42;13.82;;;10.65;;
24547;SDS011;12713;51.624;4.924;2023-03-01T00:41:12;13.50;;;10.98;;
24547;SDS011;12713;51.624;4.924;2023-03-01T00:43:39;14.27;;;10.90;;
24547;SDS011;12713;51.624;4.924;2023-03-01T00:46:06;13.60;;;10.55;;
24547;SDS011;12713;51.624;4.924;2023-03-01T00:48:32;15.82;;;10.35;;
24547;SDS011;12713;51.624;4.924;2023-03-01T00:53:30;14.67;;;10.90;;
24547;SDS011;12713;51.624;4.924;2023-03-01T00:55:57;15.05;;;10.88;;
24547;SDS011;12713;51.624;4.924;2023-03-01T00:58:23;17.35;;;11.02;;
24547;SDS011;12713;51.624;4.924;2023-03-01T01:00:49;16.98;;;11.88;;
24547;SDS011;12713;51.624;4.924;2023-03-01T01:03:17;15.73;;;11.00;;
24547;SDS011;12713;51.624;4.924;2023-03-01T01:05:43;15.65;;;10.88;;
24547;SDS011;12713;51.624;4.924;2023-03-01T01:08:09;16.85;;;10.73;;
24547;SDS011;12713;51.624;4.924;2023-03-01T01:10:35;15.52;;;11.43;;
24547;SDS011;12713;51.624;4.924;2023-03-01T01:13:01;15.75;;;11.88;;
24547;SDS011;12713;51.624;4.924;2023-03-01T01:15:27;14.70;;;10.65;;
24547;SDS011;12713;51.624;4.924;2023-03-01T01:17:53;14.77;;;11.20;;
24547;SDS011;12713;51.624;4.924;2023-03-01T01:20:19;13.52;;;10.52;;
24547;SDS011;12713;51.624;4.924;2023-03-01T01:22:46;16.95;;;10.75;;
24547;SDS011;12713;51.624;4.924;2023-03-01T01:25:12;13.73;;;9.93;;
24547;SDS011;12713;51.624;4.924;2023-03-01T01:27:38;16.90;;;11.38;;
24547;SDS011;12713;51.624;4.924;2023-03-01T01:30:04;14.25;;;10.18;;
24547;SDS011;12713;51.624;4.924;2023-03-01T01:32:30;16.25;;;10.95;;
24547;SDS011;12713;51.624;4.924;2023-03-01T01:34:56;14.13;;;10.25;;
24547;SDS011;12713;51.624;4.924;2023-03-01T01:37:22;16.05;;;9.93;;
24547;SDS011;12713;51.624;4.924;2023-03-01T01:39:56;11.93;;;10.52;;
24547;SDS011;12713;51.624;4.924;2023-03-01T01:42:22;13.82;;;10.18;;
24547;SDS011;12713;51.624;4.924;2023-03-01T01:44:48;12.68;;;10.30;;
24547;SDS011;12713;51.624;4.924;2023-03-01T01:49:44;15.23;;;10.60;;
24547;SDS011;12713;51.624;4.924;2023-03-01T01:52:14;17.23;;;10.75;;
24547;SDS011;12713;51.624;4.924;2023-03-01T01:54:54;14.93;;;10.32;;
24547;SDS011;12713;51.624;4.924;2023-03-01T01:57:22;12.23;;;10.02;;
24547;SDS011;12713;51.624;4.924;2023-03-01T01:59:50;15.80;;;9.95;;
24547;SDS011;12713;51.624;4.924;2023-03-01T02:02:16;14.90;;;10.13;;
24547;SDS011;12713;51.624;4.924;2023-03-01T02:04:42;17.10;;;11.00;;
24547;SDS011;12713;51.624;4.924;2023-03-01T02:09:37;12.82;;;10.48;;
24547;SDS011;12713;51.624;4.924;2023-03-01T02:12:04;14.95;;;10.95;;
24547;SDS011;12713;51.624;4.924;2023-03-01T02:14:30;16.08;;;10.65;;
24547;SDS011;12713;51.624;4.924;2023-03-01T02:16:56;14.15;;;10.52;;
24547;SDS011;12713;51.624;4.924;2023-03-01T02:19:31;15.95;;;10.52;;
24547;SDS011;12713;51.624;4.924;2023-03-01T02:22:02;14.40;;;10.32;;
24547;SDS011;12713;51.624;4.924;2023-03-01T02:24:34;13.90;;;9.60;;
24547;SDS011;12713;51.624;4.924;2023-03-01T02:27:02;14.85;;;9.95;;
24547;SDS011;12713;51.624;4.924;2023-03-01T02:29:28;13.63;;;10.13;;
24547;SDS011;12713;51.624;4.924;2023-03-01T02:31:54;17.00;;;11.20;;
24547;SDS011;12713;51.624;4.924;2023-03-01T02:34:23;14.27;;;10.90;;
24547;SDS011;12713;51.624;4.924;2023-03-01T02:39:24;14.77;;;11.45;;
24547;SDS011;12713;51.624;4.924;2023-03-01T02:41:51;14.32;;;10.77;;
24547;SDS011;12713;51.624;4.924;2023-03-01T02:44:18;14.68;;;10.13;;
24547;SDS011;12713;51.624;4.924;2023-03-01T02:46:46;13.98;;;10.30;;
24547;SDS011;12713;51.624;4.924;2023-03-01T02:49:20;16.02;;;11.18;;
24547;SDS011;12713;51.624;4.924;2023-03-01T02:54:33;17.58;;;11.18;;
24547;SDS011;12713;51.624;4.924;2023-03-01T02:57:02;15.65;;;11.20;;
24547;SDS011;12713;51.624;4.924;2023-03-01T02:59:29;13.70;;;10.68;;
24547;SDS011;12713;51.624;4.924;2023-03-01T03:01:56;15.50;;;10.63;;
24547;SDS011;12713;51.624;4.924;2023-03-01T03:04:22;15.85;;;11.27;;
24547;SDS011;12713;51.624;4.924;2023-03-01T03:06:49;14.95;;;11.32;;
24547;SDS011;12713;51.624;4.924;2023-03-01T03:09:16;14.18;;;10.18;;
24547;SDS011;12713;51.624;4.924;2023-03-01T03:11:42;16.95;;;11.45;;
24547;SDS011;12713;51.624;4.924;2023-03-01T03:14:09;16.17;;;11.18;;
24547;SDS011;12713;51.624;4.924;2023-03-01T03:16:49;15.57;;;10.02;;
24547;SDS011;12713;51.624;4.924;2023-03-01T03:19:16;15.60;;;11.43;;
24547;SDS011;12713;51.624;4.924;2023-03-01T03:21:42;14.38;;;10.85;;
24547;SDS011;12713;51.624;4.924;2023-03-01T03:24:08;16.50;;;10.85;;
24547;SDS011;12713;51.624;4.924;2023-03-01T03:26:34;16.73;;;10.63;;
24547;SDS011;12713;51.624;4.924;2023-03-01T03:29:00;17.20;;;11.57;;
24547;SDS011;12713;51.624;4.924;2023-03-01T03:31:27;15.80;;;10.68;;
24547;SDS011;12713;51.624;4.924;2023-03-01T03:33:53;15.98;;;11.07;;
24547;SDS011;12713;51.624;4.924;2023-03-01T03:36:21;17.63;;;11.73;;
24547;SDS011;12713;51.624;4.924;2023-03-01T03:38:47;13.98;;;11.07;;
24547;SDS011;12713;51.624;4.924;2023-03-01T03:41:13;16.15;;;11.20;;
24547;SDS011;12713;51.624;4.924;2023-03-01T03:43:40;16.08;;;10.73;;
24547;SDS011;12713;51.624;4.924;2023-03-01T03:46:07;19.77;;;11.00;;
24547;SDS011;12713;51.624;4.924;2023-03-01T03:48:40;15.52;;;10.60;;
24547;SDS011;12713;51.624;4.924;2023-03-01T03:51:06;15.70;;;10.15;;
24547;SDS011;12713;51.624;4.924;2023-03-01T03:53:33;17.48;;;10.00;;
24547;SDS011;12713;51.624;4.924;2023-03-01T03:55:59;14.10;;;10.25;;
24547;SDS011;12713;51.624;4.924;2023-03-01T03:58:25;13.63;;;10.13;;
24547;SDS011;12713;51.624;4.924;2023-03-01T04:00:53;14.50;;;10.10;;
24547;SDS011;12713;51.624;4.924;2023-03-01T04:03:21;16.20;;;11.20;;
24547;SDS011;12713;51.624;4.924;2023-03-01T04:05:47;16.65;;;10.68;;
24547;SDS011;12713;51.624;4.924;2023-03-01T04:08:15;14.88;;;10.25;;
24547;SDS011;12713;51.624;4.924;2023-03-01T04:10:43;15.13;;;9.90;;
24547;SDS011;12713;51.624;4.924;2023-03-01T04:13:13;16.52;;;10.13;;
24547;SDS011;12713;51.624;4.924;2023-03-01T04:15:40;12.85;;;9.68;;
24547;SDS011;12713;51.624;4.924;2023-03-01T04:18:08;16.20;;;10.57;;
24547;SDS011;12713;51.624;4.924;2023-03-01T04:20:35;15.27;;;10.88;;
24547;SDS011;12713;51.624;4.924;2023-03-01T04:23:05;12.80;;;9.45;;
24547;SDS011;12713;51.624;4.924;2023-03-01T04:25:38;16.38;;;12.15;;
24547;SDS011;12713;51.624;4.924;2023-03-01T04:28:05;13.13;;;10.15;;
24547;SDS011;12713;51.624;4.924;2023-03-01T04:30:31;16.02;;;10.07;;
24547;SDS011;12713;51.624;4.924;2023-03-01T04:33:01;18.50;;;10.90;;
24547;SDS011;12713;51.624;4.924;2023-03-01T04:35:27;13.77;;;9.98;;
24547;SDS011;12713;51.624;4.924;2023-03-01T04:37:53;13.75;;;10.48;;
24547;SDS011;12713;51.624;4.924;2023-03-01T04:40:19;15.80;;;10.55;;
24547;SDS011;12713;51.624;4.924;2023-03-01T04:42:46;14.02;;;10.63;;
24547;SDS011;12713;51.624;4.924;2023-03-01T04:45:12;14.43;;;10.48;;
24547;SDS011;12713;51.624;4.924;2023-03-01T04:47:40;16.55;;;10.32;;
24547;SDS011;12713;51.624;4.924;2023-03-01T04:50:08;15.93;;;10.27;;
24547;SDS011;12713;51.624;4.924;2023-03-01T04:52:34;15.52;;;9.98;;
24547;SDS011;12713;51.624;4.924;2023-03-01T04:55:00;16.45;;;10.38;;
24547;SDS011;12713;51.624;4.924;2023-03-01T04:57:26;14.10;;;9.82;;
24547;SDS011;12713;51.624;4.924;2023-03-01T04:59:52;15.88;;;11.10;;
24547;SDS011;12713;51.624;4.924;2023-03-01T05:02:18;13.65;;;10.52;;
24547;SDS011;12713;51.624;4.924;2023-03-01T05:04:44;15.02;;;10.88;;
24547;SDS011;12713;51.624;4.924;2023-03-01T05:07:11;14.80;;;10.32;;
24547;SDS011;12713;51.624;4.924;2023-03-01T05:09:38;14.43;;;10.75;;
24547;SDS011;12713;51.624;4.924;2023-03-01T05:12:04;12.63;;;10.40;;
24547;SDS011;12713;51.624;4.924;2023-03-01T05:14:30;12.73;;;10.45;;
24547;SDS011;12713;51.624;4.924;2023-03-01T05:16:56;13.13;;;9.98;;
24547;SDS011;12713;51.624;4.924;2023-03-01T05:19:29;16.38;;;10.82;;
24547;SDS011;12713;51.624;4.924;2023-03-01T05:21:56;14.70;;;10.07;;
24547;SDS011;12713;51.624;4.924;2023-03-01T05:24:32;15.23;;;10.65;;
24547;SDS011;12713;51.624;4.924;2023-03-01T05:26:58;14.63;;;11.32;;
24547;SDS011;12713;51.624;4.924;2023-03-01T05:29:26;14.50;;;10.68;;
24547;SDS011;12713;51.624;4.924;2023-03-01T05:31:56;17.80;;;11.57;;
24547;SDS011;12713;51.624;4.924;2023-03-01T05:34:35;21.30;;;11.60;;
24547;SDS011;12713;51.624;4.924;2023-03-01T05:37:01;15.75;;;10.65;;
24547;SDS011;12713;51.624;4.924;2023-03-01T05:39:28;12.68;;;10.27;;
24547;SDS011;12713;51.624;4.924;2023-03-01T05:41:55;14.35;;;10.95;;
24547;SDS011;12713;51.624;4.924;2023-03-01T05:44:21;15.05;;;10.52;;
24547;SDS011;12713;51.624;4.924;2023-03-01T05:46:48;15.90;;;11.25;;
24547;SDS011;12713;51.624;4.924;2023-03-01T05:49:14;13.55;;;10.35;;
24547;SDS011;12713;51.624;4.924;2023-03-01T05:51:41;13.43;;;10.80;;
24547;SDS011;12713;51.624;4.924;2023-03-01T05:54:07;16.00;;;10.82;;
24547;SDS011;12713;51.624;4.924;2023-03-01T05:56:34;14.20;;;11.05;;
24547;SDS011;12713;51.624;4.924;2023-03-01T05:59:00;15.10;;;10.85;;
24547;SDS011;12713;51.624;4.924;2023-03-01T06:01:26;15.60;;;10.82;;
24547;SDS011;12713;51.624;4.924;2023-03-01T06:03:53;17.40;;;11.82;;
24547;SDS011;12713;51.624;4.924;2023-03-01T06:06:19;15.60;;;11.38;;
24547;SDS011;12713;51.624;4.924;2023-03-01T06:08:45;16.35;;;11.32;;
24547;SDS011;12713;51.624;4.924;2023-03-01T06:11:11;15.68;;;11.57;;
24547;SDS011;12713;51.624;4.924;2023-03-01T06:13:37;15.32;;;11.18;;
24547;SDS011;12713;51.624;4.924;2023-03-01T06:16:06;15.90;;;11.25;;
24547;SDS011;12713;51.624;4.924;2023-03-01T06:18:32;18.00;;;11.88;;
24547;SDS011;12713;51.624;4.924;2023-03-01T06:20:59;17.70;;;11.13;;
24547;SDS011;12713;51.624;4.924;2023-03-01T06:23:25;14.95;;;11.80;;
24547;SDS011;12713;51.624;4.924;2023-03-01T06:25:51;17.60;;;11.52;;
24547;SDS011;12713;51.624;4.924;2023-03-01T06:28:17;15.40;;;11.77;;
24547;SDS011;12713;51.624;4.924;2023-03-01T06:30:43;17.23;;;11.80;;
24547;SDS011;12713;51.624;4.924;2023-03-01T06:33:09;17.65;;;11.13;;
24547;SDS011;12713;51.624;4.924;2023-03-01T06:35:35;13.80;;;10.43;;
24547;SDS011;12713;51.624;4.924;2023-03-01T06:38:02;15.00;;;11.60;;
24547;SDS011;12713;51.624;4.924;2023-03-01T06:40:29;18.88;;;11.90;;
24547;SDS011;12713;51.624;4.924;2023-03-01T06:42:56;15.32;;;11.65;;
24547;SDS011;12713;51.624;4.924;2023-03-01T06:45:22;16.88;;;11.25;;
24547;SDS011;12713;51.624;4.924;2023-03-01T06:47:48;16.20;;;11.35;;
24547;SDS011;12713;51.624;4.924;2023-03-01T06:50:15;19.33;;;11.50;;
24547;SDS011;12713;51.624;4.924;2023-03-01T06:52:41;15.13;;;11.98;;
24547;SDS011;12713;51.624;4.924;2023-03-01T06:55:08;16.42;;;11.60;;
24547;SDS011;12713;51.624;4.924;2023-03-01T06:57:34;17.88;;;11.73;;
24547;SDS011;12713;51.624;4.924;2023-03-01T07:00:01;18.92;;;12.05;;
24547;SDS011;12713;51.624;4.924;2023-03-01T07:02:27;16.60;;;12.18;;
24547;SDS011;12713;51.624;4.924;2023-03-01T07:04:53;17.92;;;13.07;;
24547;SDS011;12713;51.624;4.924;2023-03-01T07:07:19;17.63;;;12.88;;
24547;SDS011;12713;51.624;4.924;2023-03-01T07:09:45;15.82;;;11.15;;
24547;SDS011;12713;51.624;4.924;2023-03-01T07:12:11;16.77;;;11.77;;
24547;SDS011;12713;51.624;4.924;2023-03-01T07:14:37;15.88;;;11.15;;
24547;SDS011;12713;51.624;4.924;2023-03-01T07:17:03;16.77;;;11.90;;
24547;SDS011;12713;51.624;4.924;2023-03-01T07:19:29;17.95;;;11.68;;
24547;SDS011;12713;51.624;4.924;2023-03-01T07:21:55;15.15;;;11.98;;
24547;SDS011;12713;51.624;4.924;2023-03-01T07:24:21;17.30;;;11.65;;
24547;SDS011;12713;51.624;4.924;2023-03-01T07:26:48;17.00;;;11.70;;
24547;SDS011;12713;51.624;4.924;2023-03-01T07:29:15;16.25;;;12.13;;
24547;SDS011;12713;51.624;4.924;2023-03-01T07:31:41;16.45;;;11.63;;
24547;SDS011;12713;51.624;4.924;2023-03-01T07:34:07;16.48;;;11.90;;
24547;SDS011;12713;51.624;4.924;2023-03-01T07:36:33;21.95;;;12.57;;
24547;SDS011;12713;51.624;4.924;2023-03-01T07:38:59;18.45;;;12.95;;
24547;SDS011;12713;51.624;4.924;2023-03-01T07:41:27;17.55;;;12.90;;
24547;SDS011;12713;51.624;4.924;2023-03-01T07:43:53;27.85;;;17.52;;
24547;SDS011;12713;51.624;4.924;2023-03-01T07:46:19;19.55;;;13.05;;
24547;SDS011;12713;51.624;4.924;2023-03-01T07:48:45;17.83;;;12.82;;
24547;SDS011;12713;51.624;4.924;2023-03-01T07:51:11;21.83;;;14.15;;
24547;SDS011;12713;51.624;4.924;2023-03-01T07:53:37;17.75;;;11.60;;
24547;SDS011;12713;51.624;4.924;2023-03-01T07:56:04;19.38;;;12.95;;
24547;SDS011;12713;51.624;4.924;2023-03-01T07:58:30;18.15;;;12.75;;
24547;SDS011;12713;51.624;4.924;2023-03-01T08:01:00;20.63;;;13.50;;
24547;SDS011;12713;51.624;4.924;2023-03-01T08:03:26;15.95;;;11.75;;
24547;SDS011;12713;51.624;4.924;2023-03-01T08:05:52;18.52;;;12.18;;
24547;SDS011;12713;51.624;4.924;2023-03-01T08:08:18;16.95;;;11.48;;
24547;SDS011;12713;51.624;4.924;2023-03-01T08:10:44;19.83;;;12.35;;
24547;SDS011;12713;51.624;4.924;2023-03-01T08:13:10;15.38;;;11.45;;
24547;SDS011;12713;51.624;4.924;2023-03-01T08:15:36;18.25;;;12.63;;
24547;SDS011;12713;51.624;4.924;2023-03-01T08:18:02;22.90;;;12.70;;
24547;SDS011;12713;51.624;4.924;2023-03-01T08:20:28;17.40;;;12.52;;
24547;SDS011;12713;51.624;4.924;2023-03-01T08:22:54;15.82;;;11.52;;
24547;SDS011;12713;51.624;4.924;2023-03-01T08:25:20;18.42;;;11.90;;
24547;SDS011;12713;51.624;4.924;2023-03-01T08:27:46;15.20;;;10.57;;
24547;SDS011;12713;51.624;4.924;2023-03-01T08:30:12;17.60;;;11.48;;
24547;SDS011;12713;51.624;4.924;2023-03-01T08:32:39;19.17;;;9.75;;
24547;SDS011;12713;51.624;4.924;2023-03-01T08:40:53;13.57;;;9.45;;
24547;SDS011;12713;51.624;4.924;2023-03-01T08:43:19;13.70;;;9.20;;
24547;SDS011;12713;51.624;4.924;2023-03-01T08:45:47;13.23;;;9.40;;
24547;SDS011;12713;51.624;4.924;2023-03-01T08:48:14;13.70;;;8.23;;
24547;SDS011;12713;51.624;4.924;2023-03-01T08:50:40;10.15;;;7.50;;
24547;SDS011;12713;51.624;4.924;2023-03-01T08:53:06;13.00;;;8.02;;
24547;SDS011;12713;51.624;4.924;2023-03-01T08:55:32;11.23;;;7.47;;
24547;SDS011;12713;51.624;4.924;2023-03-01T08:57:58;12.35;;;8.13;;
24547;SDS011;12713;51.624;4.924;2023-03-01T09:00:24;10.63;;;7.55;;
24547;SDS011;12713;51.624;4.924;2023-03-01T09:02:53;11.20;;;7.60;;
24547;SDS011;12713;51.624;4.924;2023-03-01T09:05:19;11.55;;;7.97;;
24547;SDS011;12713;51.624;4.924;2023-03-01T09:07:45;11.13;;;7.57;;
24547;SDS011;12713;51.624;4.924;2023-03-01T09:10:11;10.75;;;7.70;;
24547;SDS011;12713;51.624;4.924;2023-03-01T09:12:37;10.35;;;7.05;;
24547;SDS011;12713;51.624;4.924;2023-03-01T09:15:03;11.75;;;8.13;;
24547;SDS011;12713;51.624;4.924;2023-03-01T09:17:29;10.20;;;7.80;;
24547;SDS011;12713;51.624;4.924;2023-03-01T09:19:55;14.52;;;7.95;;
24547;SDS011;12713;51.624;4.924;2023-03-01T09:22:21;13.55;;;7.82;;
24547;SDS011;12713;51.624;4.924;2023-03-01T09:24:47;11.65;;;7.70;;
24547;SDS011;12713;51.624;4.924;2023-03-01T09:27:13;12.20;;;7.47;;
24547;SDS011;12713;51.624;4.924;2023-03-01T09:29:39;10.00;;;7.05;;
24547;SDS011;12713;51.624;4.924;2023-03-01T09:32:05;11.05;;;8.50;;
24547;SDS011;12713;51.624;4.924;2023-03-01T09:34:33;9.18;;;7.10;;
24547;SDS011;12713;51.624;4.924;2023-03-01T09:37:19;11.20;;;7.15;;
24547;SDS011;12713;51.624;4.924;2023-03-01T09:39:45;10.93;;;7.80;;
24547;SDS011;12713;51.624;4.924;2023-03-01T09:42:11;10.43;;;6.70;;
24547;SDS011;12713;51.624;4.924;2023-03-01T09:44:40;11.90;;;7.53;;
24547;SDS011;12713;51.624;4.924;2023-03-01T09:49:43;10.93;;;7.72;;
24547;SDS011;12713;51.624;4.924;2023-03-01T09:54:58;10.45;;;7.15;;
24547;SDS011;12713;51.624;4.924;2023-03-01T10:04:52;8.43;;;6.05;;
24547;SDS011;12713;51.624;4.924;2023-03-01T10:10:07;10.00;;;6.47;;
24547;SDS011;12713;51.624;4.924;2023-03-01T10:12:37;10.50;;;6.40;;
24547;SDS011;12713;51.624;4.924;2023-03-01T10:15:14;10.82;;;6.32;;
24547;SDS011;12713;51.624;4.924;2023-03-01T10:17:48;10.32;;;6.32;;
24547;SDS011;12713;51.624;4.924;2023-03-01T10:20:19;7.85;;;6.05;;
24547;SDS011;12713;51.624;4.924;2023-03-01T10:22:46;10.35;;;6.28;;
24547;SDS011;12713;51.624;4.924;2023-03-01T10:25:15;9.07;;;6.28;;
24547;SDS011;12713;51.624;4.924;2023-03-01T10:27:51;16.42;;;6.03;;
24547;SDS011;12713;51.624;4.924;2023-03-01T10:30:19;9.32;;;6.35;;
24547;SDS011;12713;51.624;4.924;2023-03-01T10:32:46;9.98;;;5.57;;
24547;SDS011;12713;51.624;4.924;2023-03-01T10:37:59;10.98;;;6.72;;
24547;SDS011;12713;51.624;4.924;2023-03-01T10:40:28;8.25;;;5.68;;
24547;SDS011;12713;51.624;4.924;2023-03-01T10:42:54;8.23;;;6.20;;
24547;SDS011;12713;51.624;4.924;2023-03-01T10:50:30;9.07;;;6.30;;
24547;SDS011;12713;51.624;4.924;2023-03-01T10:53:00;8.38;;;6.15;;
24547;SDS011;12713;51.624;4.924;2023-03-01T10:55:37;9.15;;;5.90;;
24547;SDS011;12713;51.624;4.924;2023-03-01T10:58:16;8.27;;;6.00;;
24547;SDS011;12713;51.624;4.924;2023-03-01T11:03:14;8.60;;;5.95;;
24547;SDS011;12713;51.624;4.924;2023-03-01T11:08:35;7.95;;;6.38;;
24547;SDS011;12713;51.624;4.924;2023-03-01T11:13:31;12.50;;;6.03;;
24547;SDS011;12713;51.624;4.924;2023-03-01T11:16:05;6.88;;;5.78;;
24547;SDS011;12713;51.624;4.924;2023-03-01T11:18:32;9.75;;;5.70;;
24547;SDS011;12713;51.624;4.924;2023-03-01T11:20:58;7.55;;;5.57;;
24547;SDS011;12713;51.624;4.924;2023-03-01T11:23:25;6.95;;;5.20;;
24547;SDS011;12713;51.624;4.924;2023-03-01T11:25:58;8.85;;;5.88;;
24547;SDS011;12713;51.624;4.924;2023-03-01T11:28:25;7.65;;;5.40;;
24547;SDS011;12713;51.624;4.924;2023-03-01T11:36:08;7.15;;;6.07;;
24547;SDS011;12713;51.624;4.924;2023-03-01T11:38:37;7.82;;;5.60;;
24547;SDS011;12713;51.624;4.924;2023-03-01T11:54:03;8.77;;;5.78;;
24547;SDS011;12713;51.624;4.924;2023-03-01T11:56:35;9.48;;;6.20;;
24547;SDS011;12713;51.624;4.924;2023-03-01T12:10:15;11.27;;;6.28;;
24547;SDS011;12713;51.624;4.924;2023-03-01T12:12:48;7.97;;;6.57;;
24547;SDS011;12713;51.624;4.924;2023-03-01T12:23:34;6.68;;;5.63;;
24547;SDS011;12713;51.624;4.924;2023-03-01T12:26:08;6.75;;;5.60;;
24547;SDS011;12713;51.624;4.924;2023-03-01T12:38:49;8.63;;;6.35;;
24547;SDS011;12713;51.624;4.924;2023-03-01T12:41:40;9.80;;;6.03;;
24547;SDS011;12713;51.624;4.924;2023-03-01T12:49:13;9.05;;;6.55;;
24547;SDS011;12713;51.624;4.924;2023-03-01T12:51:42;12.63;;;6.47;;
24547;SDS011;12713;51.624;4.924;2023-03-01T12:54:18;11.32;;;6.60;;
24547;SDS011;12713;51.624;4.924;2023-03-01T12:56:47;8.07;;;6.30;;
24547;SDS011;12713;51.624;4.924;2023-03-01T12:59:19;8.20;;;6.20;;
24547;SDS011;12713;51.624;4.924;2023-03-01T13:11:49;9.25;;;6.05;;
24547;SDS011;12713;51.624;4.924;2023-03-01T13:16:51;7.03;;;6.15;;
24547;SDS011;12713;51.624;4.924;2023-03-01T13:19:18;10.82;;;6.72;;
24547;SDS011;12713;51.624;4.924;2023-03-01T13:21:46;10.65;;;6.82;;
24547;SDS011;12713;51.624;4.924;2023-03-01T13:34:46;7.15;;;5.60;;
24547;SDS011;12713;51.624;4.924;2023-03-01T13:37:23;10.25;;;6.20;;
24547;SDS011;12713;51.624;4.924;2023-03-01T13:39:51;8.10;;;5.85;;
24547;SDS011;12713;51.624;4.924;2023-03-01T13:42:34;9.50;;;5.88;;
24547;SDS011;12713;51.624;4.924;2023-03-01T13:45:02;8.75;;;6.47;;
24547;SDS011;12713;51.624;4.924;2023-03-01T13:47:29;10.05;;;5.93;;
24547;SDS011;12713;51.624;4.924;2023-03-01T13:50:03;7.75;;;6.00;;
24547;SDS011;12713;51.624;4.924;2023-03-01T13:52:39;8.45;;;6.22;;
24547;SDS011;12713;51.624;4.924;2023-03-01T13:55:32;7.88;;;6.18;;
24547;SDS011;12713;51.624;4.924;2023-03-01T13:57:57;9.48;;;6.55;;
24547;SDS011;12713;51.624;4.924;2023-03-01T14:00:34;8.65;;;5.90;;
24547;SDS011;12713;51.624;4.924;2023-03-01T14:05:39;10.82;;;6.45;;
24547;SDS011;12713;51.624;4.924;2023-03-01T14:08:17;10.10;;;6.18;;
24547;SDS011;12713;51.624;4.924;2023-03-01T14:21:09;9.82;;;5.70;;
24547;SDS011;12713;51.624;4.924;2023-03-01T14:26:05;9.13;;;6.07;;
24547;SDS011;12713;51.624;4.924;2023-03-01T14:28:31;8.20;;;5.57;;
24547;SDS011;12713;51.624;4.924;2023-03-01T14:30:59;8.93;;;5.90;;
24547;SDS011;12713;51.624;4.924;2023-03-01T14:33:30;9.10;;;6.05;;
24547;SDS011;12713;51.624;4.924;2023-03-01T14:36:09;8.50;;;6.13;;
24547;SDS011;12713;51.624;4.924;2023-03-01T14:38:37;7.75;;;5.18;;
24547;SDS011;12713;51.624;4.924;2023-03-01T14:41:05;7.45;;;4.95;;
24547;SDS011;12713;51.624;4.924;2023-03-01T14:43:32;9.07;;;5.53;;
24547;SDS011;12713;51.624;4.924;2023-03-01T14:45:58;7.97;;;5.55;;
24547;SDS011;12713;51.624;4.924;2023-03-01T14:48:24;8.43;;;4.97;;
24547;SDS011;12713;51.624;4.924;2023-03-01T14:50:52;10.02;;;6.28;;
24547;SDS011;12713;51.624;4.924;2023-03-01T14:53:19;8.20;;;5.32;;
24547;SDS011;12713;51.624;4.924;2023-03-01T14:55:47;9.50;;;5.15;;
24547;SDS011;12713;51.624;4.924;2023-03-01T14:58:17;7.68;;;4.78;;
24547;SDS011;12713;51.624;4.924;2023-03-01T15:00:49;7.47;;;5.50;;
24547;SDS011;12713;51.624;4.924;2023-03-01T15:03:27;8.40;;;5.90;;
24547;SDS011;12713;51.624;4.924;2023-03-01T15:05:57;8.10;;;5.00;;
24547;SDS011;12713;51.624;4.924;2023-03-01T15:08:24;10.30;;;6.03;;
24547;SDS011;12713;51.624;4.924;2023-03-01T15:13:26;8.45;;;5.78;;
24547;SDS011;12713;51.624;4.924;2023-03-01T15:16:01;9.80;;;5.95;;
24547;SDS011;12713;51.624;4.924;2023-03-01T15:18:28;10.65;;;6.15;;
24547;SDS011;12713;51.624;4.924;2023-03-01T15:20:55;6.03;;;5.00;;
24547;SDS011;12713;51.624;4.924;2023-03-01T15:23:23;7.57;;;5.35;;
24547;SDS011;12713;51.624;4.924;2023-03-01T15:25:50;9.63;;;6.65;;
24547;SDS011;12713;51.624;4.924;2023-03-01T15:28:21;9.18;;;5.57;;
24547;SDS011;12713;51.624;4.924;2023-03-01T15:30:52;7.97;;;5.72;;
24547;SDS011;12713;51.624;4.924;2023-03-01T15:35:46;9.05;;;6.18;;
24547;SDS011;12713;51.624;4.924;2023-03-01T15:38:27;7.43;;;5.30;;
24547;SDS011;12713;51.624;4.924;2023-03-01T15:40:53;8.45;;;6.00;;
24547;SDS011;12713;51.624;4.924;2023-03-01T15:43:39;7.40;;;5.68;;
24547;SDS011;12713;51.624;4.924;2023-03-01T15:46:05;7.30;;;5.22;;
24547;SDS011;12713;51.624;4.924;2023-03-01T15:48:38;8.82;;;6.07;;
24547;SDS011;12713;51.624;4.924;2023-03-01T15:51:04;9.85;;;5.90;;
24547;SDS011;12713;51.624;4.924;2023-03-01T15:53:35;9.00;;;5.78;;
24547;SDS011;12713;51.624;4.924;2023-03-01T15:56:01;7.50;;;6.15;;
24547;SDS011;12713;51.624;4.924;2023-03-01T15:58:27;6.47;;;4.70;;
24547;SDS011;12713;51.624;4.924;2023-03-01T16:00:53;9.35;;;5.72;;
24547;SDS011;12713;51.624;4.924;2023-03-01T16:03:21;7.40;;;5.63;;
24547;SDS011;12713;51.624;4.924;2023-03-01T16:05:48;7.47;;;5.35;;
24547;SDS011;12713;51.624;4.924;2023-03-01T16:08:15;8.70;;;5.60;;
24547;SDS011;12713;51.624;4.924;2023-03-01T16:10:41;9.93;;;5.45;;
24547;SDS011;12713;51.624;4.924;2023-03-01T16:13:08;6.85;;;5.07;;
24547;SDS011;12713;51.624;4.924;2023-03-01T16:15:34;7.68;;;5.95;;
24547;SDS011;12713;51.624;4.924;2023-03-01T16:18:01;7.80;;;5.32;;
24547;SDS011;12713;51.624;4.924;2023-03-01T16:20:27;7.63;;;5.40;;
24547;SDS011;12713;51.624;4.924;2023-03-01T16:22:54;8.27;;;5.45;;
24547;SDS011;12713;51.624;4.924;2023-03-01T16:25:20;8.73;;;5.97;;
24547;SDS011;12713;51.624;4.924;2023-03-01T16:27:48;10.18;;;6.13;;
24547;SDS011;12713;51.624;4.924;2023-03-01T16:30:15;8.63;;;5.72;;
24547;SDS011;12713;51.624;4.924;2023-03-01T16:32:42;7.40;;;5.32;;
24547;SDS011;12713;51.624;4.924;2023-03-01T16:35:09;7.53;;;5.68;;
24547;SDS011;12713;51.624;4.924;2023-03-01T16:37:35;9.80;;;5.90;;
24547;SDS011;12713;51.624;4.924;2023-03-01T16:40:02;8.07;;;5.55;;
24547;SDS011;12713;51.624;4.924;2023-03-01T16:42:32;8.55;;;5.85;;
24547;SDS011;12713;51.624;4.924;2023-03-01T16:44:58;8.57;;;4.90;;
24547;SDS011;12713;51.624;4.924;2023-03-01T16:47:25;7.22;;;5.75;;
24547;SDS011;12713;51.624;4.924;2023-03-01T16:49:52;9.68;;;5.55;;
24547;SDS011;12713;51.624;4.924;2023-03-01T16:52:18;9.27;;;6.53;;
24547;SDS011;12713;51.624;4.924;2023-03-01T16:54:44;9.15;;;6.03;;
24547;SDS011;12713;51.624;4.924;2023-03-01T16:57:10;12.45;;;5.93;;
24547;SDS011;12713;51.624;4.924;2023-03-01T16:59:36;8.50;;;6.15;;
24547;SDS011;12713;51.624;4.924;2023-03-01T17:02:03;7.22;;;5.57;;